EST,Max TemperatureF,Mean TemperatureF,Min TemperatureF,Max Dew PointF,MeanDew PointF,Min DewpointF,Max Humidity, Mean Humidity, Min Humidity, Max Sea Level PressureIn, Mean Sea Level PressureIn, Min Sea Level PressureIn, Max VisibilityMiles, Mean VisibilityMiles, Min VisibilityMiles, Max Wind SpeedMPH, Mean Wind SpeedMPH, Max Gust SpeedMPH,PrecipitationIn, CloudCover, Events, WindDirDegrees
2012-11-1,55,50,46,43,40,37,71,66,58,29.59,29.57,29.54,10,10,10,16,8,23,0.00,5,Rain,242
2012-11-2,55,48,43,41,37,30,80,65,52,29.65,29.60,29.56,10,10,10,12,2,25,0.00,7,Rain,304
2012-11-3,55,46,39,34,32,29,77,59,41,29.86,29.75,29.67,10,10,10,12,6,22,0.00,3,,309
2012-11-4,54,46,35,33,31,29,78,62,45,29.95,29.90,29.86,10,10,10,9,5,,0.00,0,,308
2012-11-5,46,38,30,31,25,19,76,57,40,30.16,30.02,29.95,10,10,10,14,6,22,0.00,3,,349
2012-11-6,41,31,21,24,20,17,89,62,40,30.25,30.19,30.13,10,10,10,8,1,,0.00,0,,68
2012-11-7,42,38,33,36,32,27,100,86,67,30.09,29.80,29.61,10,6,1,25,13,43,0.26,7,Rain-Snow,15
2012-11-8,41,37,33,36,33,30,100,82,73,29.78,29.63,29.54,10,9,2,30,22,46,0.13,8,Rain,347
2012-11-9,54,46,37,30,25,20,70,50,26,30.16,29.97,29.78,10,10,10,17,9,28,0.00,0,,328
2012-11-10,55,46,37,42,36,28,93,69,44,30.46,30.30,30.17,10,9,6,8,2,,0.00,2,,281
2012-11-11,60,51,42,52,47,39,100,84,62,30.53,30.50,30.45,10,6,0,14,4,20,0.00,2,Fog,205
2012-11-12,63,51,39,59,52,39,100,94,82,30.50,30.43,30.25,10,5,0,13,3,17,0.00,5,Fog,185
2012-11-13,61,52,42,61,49,32,100,88,67,30.41,30.25,30.17,10,8,4,16,10,23,0.04,8,Rain,302
2012-11-14,48,39,30,31,26,22,82,60,36,30.51,30.46,30.41,10,10,10,15,9,22,0.00,4,,10
2012-11-15,42,38,33,32,29,24,85,74,67,30.44,30.38,30.30,10,10,10,9,5,,0.00,5,,8
2012-11-16,48,38,28,33,28,26,89,68,42,30.43,30.32,30.28,10,10,8,7,4,,0.00,1,,4
2012-11-17,52,40,28,34,29,24,92,72,43,30.66,30.57,30.43,10,10,7,10,3,,0.00,0,,11
2012-11-18,50,38,26,35,30,26,100,74,48,30.69,30.65,30.60,10,8,4,13,4,21,0.00,0,,39
2012-11-19,50,42,34,38,34,30,93,77,63,30.58,30.42,30.27,10,10,10,12,5,,0.00,4,,20
2012-11-20,51,42,32,38,34,30,96,81,56,30.24,30.17,30.13,10,10,8,7,3,,0.00,0,,15
2012-11-21,53,42,32,39,35,31,97,78,54,30.24,30.20,30.15,10,10,8,10,3,17,0.00,0,,25
2012-11-22,55,44,30,43,38,30,100,85,53,30.27,30.22,30.15,10,8,2,10,2,,0.00,0,,43
2012-11-23,52,41,30,48,38,28,100,90,71,30.13,29.95,29.68,10,6,0,9,2,,0.00,6,Fog,219
2012-11-24,50,42,34,48,29,16,94,59,33,29.75,29.65,29.60,10,10,10,16,7,25,0.00,5,,294
2012-11-25,39,34,30,23,19,16,66,52,38,29.92,29.84,29.76,10,10,10,12,7,22,0.00,1,,271
2012-11-26,48,38,25,23,22,20,85,53,34,30.27,30.09,29.93,10,10,10,13,6,21,0.00,1,,289
2012-11-27,37,32,27,37,32,23,100,92,75,30.33,30.26,30.19,10,5,2,8,3,,0.07,8,Rain-Snow,20
2012-11-28,39,34,30,34,29,22,100,78,60,30.22,30.17,30.13,10,10,8,14,8,20,0.00,5,,345
2012-11-29,42,35,28,30,25,21,79,62,43,30.32,30.27,30.22,10,10,9,13,6,23,0.00,0,,264
2012-11-30,41,34,28,28,23,16,82,62,44,30.53,30.42,30.29,10,10,8,9,5,,0.00,4,,27